Terminal Aerodrome Forecast
Issued by NWS

Home | Current Version | Previous Version | Text Only | Print | Product List | Glossary On
Versions: 1 2 3 4 5 6 7 8 9 10 11 12 13
000
FTAK31 PAJN 262300
TAFASI
TAF
PASI 262338Z 2700/2724 16015G25KT 6SM -RA SCT030 OVC060
     FM270300 15010KT P6SM -SHRA SCT020 OVC050
     FM271000 14008G18KT P6SM -SHRA VCTS BKN040CB OVC060
     FM272200 14008KT P6SM VCSH BKN040 OVC070=

USA.gov is the U.S. government's official web portal to all federal, state and local government web resources and services.